createdAt,value
2018-07-06T00:02:15.998Z,24.77
2018-07-06T00:04:42.452Z,24.76
2018-07-06T00:07:08.995Z,24.78
2018-07-06T00:09:35.645Z,24.77
2018-07-06T00:12:02.024Z,24.76
2018-07-06T00:14:28.427Z,24.75
2018-07-06T00:16:54.840Z,24.73
2018-07-06T00:19:21.172Z,24.72
2018-07-06T00:21:47.660Z,24.71
2018-07-06T00:24:14.024Z,24.69
2018-07-06T00:26:40.765Z,24.67
2018-07-06T00:29:07.195Z,24.68
2018-07-06T00:31:33.720Z,24.68
2018-07-06T00:34:00.061Z,24.68
2018-07-06T00:36:26.701Z,24.67
2018-07-06T00:38:53.053Z,24.64
2018-07-06T00:41:19.394Z,24.63
2018-07-06T00:43:45.903Z,24.65
2018-07-06T00:46:12.333Z,24.64
2018-07-06T00:48:38.787Z,24.61
2018-07-06T00:51:05.199Z,24.64
2018-07-06T00:53:31.893Z,24.60
2018-07-06T00:55:58.351Z,24.60
2018-07-06T00:58:24.945Z,24.59
2018-07-06T01:00:51.369Z,24.56
2018-07-06T01:03:17.990Z,24.59
2018-07-06T01:05:44.514Z,24.49
2018-07-06T01:08:10.969Z,24.42
2018-07-06T01:10:37.337Z,24.35
2018-07-06T01:13:03.944Z,24.29
2018-07-06T01:15:30.685Z,24.33
2018-07-06T01:17:57.193Z,24.24
2018-07-06T01:20:23.619Z,24.21
2018-07-06T01:22:50.186Z,24.21
2018-07-06T01:25:16.730Z,24.19
2018-07-06T01:27:43.369Z,24.05
2018-07-06T01:30:09.775Z,24.14
2018-07-06T01:32:36.278Z,24.09
2018-07-06T01:35:02.914Z,24.07
2018-07-06T01:37:29.415Z,24.00
2018-07-06T01:39:55.801Z,23.98
2018-07-06T01:42:22.347Z,23.93
2018-07-06T01:44:48.673Z,23.93
2018-07-06T01:47:15.217Z,23.91
2018-07-06T01:49:41.557Z,23.89
2018-07-06T01:52:08.476Z,23.86
2018-07-06T01:54:34.999Z,23.81
2018-07-06T01:57:01.663Z,23.86
2018-07-06T01:59:28.338Z,23.86
2018-07-06T02:01:55.134Z,23.76
2018-07-06T02:04:21.476Z,23.77
2018-07-06T02:06:47.898Z,23.75
2018-07-06T02:09:14.254Z,23.77
2018-07-06T02:11:40.583Z,23.69
2018-07-06T02:14:06.990Z,23.71
2018-07-06T02:16:33.334Z,23.71
2018-07-06T02:18:59.867Z,23.70
2018-07-06T02:21:26.445Z,23.65
2018-07-06T02:23:54.582Z,23.66
2018-07-06T02:26:21.003Z,23.66
2018-07-06T02:28:47.673Z,23.65
2018-07-06T02:31:14.519Z,23.62
2018-07-06T02:33:41.236Z,23.60
2018-07-06T02:36:07.734Z,23.60
2018-07-06T02:38:34.558Z,23.55
2018-07-06T02:41:01.408Z,23.56
2018-07-06T02:43:28.145Z,23.56
2018-07-06T02:45:54.541Z,23.50
2018-07-06T02:48:21.012Z,23.49
2018-07-06T02:50:47.696Z,23.51
2018-07-06T02:53:14.035Z,23.50
2018-07-06T02:55:40.383Z,23.52
2018-07-06T02:58:06.874Z,23.44
2018-07-06T03:00:33.248Z,23.47
2018-07-06T03:03:02.135Z,23.51
2018-07-06T03:05:28.517Z,23.49
2018-07-06T03:07:55.194Z,23.61
2018-07-06T03:10:21.657Z,23.66
2018-07-06T03:12:48.031Z,23.70
2018-07-06T03:15:14.361Z,23.71
2018-07-06T03:17:40.895Z,23.72
2018-07-06T03:20:07.211Z,23.76
2018-07-06T03:22:33.597Z,23.84
2018-07-06T03:25:00.132Z,23.86
2018-07-06T03:27:26.746Z,23.92
2018-07-06T03:29:53.296Z,23.93
2018-07-06T03:32:20.101Z,24.03
2018-07-06T03:34:46.632Z,24.10
2018-07-06T03:37:13.150Z,24.07
2018-07-06T03:39:39.520Z,24.11
2018-07-06T03:42:05.853Z,24.17
2018-07-06T03:44:32.440Z,24.18
2018-07-06T03:46:58.847Z,24.21
2018-07-06T03:49:25.326Z,24.24
2018-07-06T03:51:51.996Z,24.21
2018-07-06T03:54:18.404Z,24.26
2018-07-06T03:56:44.935Z,24.27
2018-07-06T03:59:11.326Z,24.35
2018-07-06T04:01:37.812Z,24.37
2018-07-06T04:04:04.151Z,24.47
2018-07-06T04:06:30.668Z,24.50
2018-07-06T04:08:57.059Z,24.48
2018-07-06T04:11:23.560Z,24.48
2018-07-06T04:13:49.895Z,24.46
2018-07-06T04:16:16.261Z,24.51
2018-07-06T04:18:42.644Z,24.49
2018-07-06T04:21:09.095Z,24.55
2018-07-06T04:23:35.499Z,24.45
2018-07-06T04:26:02.043Z,24.52
2018-07-06T04:28:28.424Z,24.51
2018-07-06T04:30:55.319Z,24.56
2018-07-06T04:33:21.774Z,24.52
2018-07-06T04:35:48.114Z,24.61
2018-07-06T04:38:14.492Z,24.56
2018-07-06T04:40:41.343Z,24.57
2018-07-06T04:43:08.039Z,24.61
2018-07-06T04:45:34.369Z,24.61
2018-07-06T04:48:00.800Z,24.59
2018-07-06T04:50:27.327Z,24.61
2018-07-06T04:52:53.706Z,24.62
2018-07-06T04:55:20.087Z,24.62
2018-07-06T04:57:46.464Z,24.57
2018-07-06T05:00:12.844Z,24.65
2018-07-06T05:02:39.275Z,24.68
2018-07-06T05:05:05.680Z,24.65
2018-07-06T05:07:32.296Z,24.68
2018-07-06T05:09:58.637Z,24.71
2018-07-06T05:12:25.095Z,24.73
2018-07-06T05:14:52.535Z,24.76
2018-07-06T05:17:19.146Z,24.65
2018-07-06T05:19:45.770Z,24.77
2018-07-06T05:22:12.281Z,24.77
2018-07-06T05:24:38.652Z,24.81
2018-07-06T05:27:05.404Z,24.80
2018-07-06T05:29:31.902Z,24.86
2018-07-06T05:31:59.525Z,24.87
2018-07-06T05:34:25.942Z,24.89
2018-07-06T05:36:53.212Z,24.92
2018-07-06T05:39:19.669Z,24.97
2018-07-06T05:41:46.281Z,25.01
2018-07-06T05:44:12.849Z,25.02
2018-07-06T05:46:39.361Z,25.11
2018-07-06T05:49:05.714Z,25.08
2018-07-06T05:51:32.442Z,25.10
2018-07-06T05:53:58.845Z,25.13
2018-07-06T05:56:25.776Z,25.17
2018-07-06T05:58:52.208Z,25.16
2018-07-06T06:01:18.960Z,25.20
2018-07-06T06:03:45.781Z,25.18
2018-07-06T06:06:12.721Z,25.29
2018-07-06T06:08:40.361Z,25.32
2018-07-06T06:11:06.886Z,25.30
2018-07-06T06:13:33.756Z,25.37
2018-07-06T06:16:00.862Z,25.43
2018-07-06T06:18:27.370Z,25.42
2018-07-06T06:20:53.771Z,25.50
2018-07-06T06:23:20.885Z,25.50
2018-07-06T06:25:47.728Z,25.53
2018-07-06T06:28:14.430Z,25.51
2018-07-06T06:30:40.870Z,25.51
2018-07-06T06:33:08.828Z,25.52
2018-07-06T06:35:36.341Z,25.59
2018-07-06T06:38:03.390Z,25.59
2018-07-06T06:40:29.806Z,25.59
2018-07-06T06:42:57.757Z,25.53
2018-07-06T06:45:24.529Z,25.74
2018-07-06T06:47:51.893Z,25.66
2018-07-06T06:50:23.638Z,25.73
2018-07-06T06:52:50.197Z,25.76
2018-07-06T06:55:17.320Z,25.71
2018-07-06T06:57:44.389Z,25.83
2018-07-06T07:00:15.376Z,25.89
2018-07-06T07:02:43.593Z,25.93
2018-07-06T07:05:10.860Z,25.84
2018-07-06T07:07:38.409Z,26.10
2018-07-06T07:10:05.373Z,25.91
2018-07-06T07:12:32.241Z,25.94
2018-07-06T07:14:59.151Z,26.13
2018-07-06T07:17:26.032Z,26.02
2018-07-06T07:19:53.170Z,26.03
2018-07-06T07:22:20.119Z,26.02
2018-07-06T07:24:47.321Z,26.05
2018-07-06T07:27:14.764Z,26.19
2018-07-06T07:29:43.632Z,26.23
2018-07-06T07:32:10.716Z,26.16
2018-07-06T07:34:37.773Z,26.24
2018-07-06T07:37:04.810Z,26.16
2018-07-06T07:39:43.052Z,26.21
2018-07-06T07:42:10.733Z,26.17
2018-07-06T07:44:38.180Z,26.13
2018-07-06T07:47:05.294Z,26.17
2018-07-06T07:49:32.397Z,26.29
2018-07-06T07:51:59.209Z,26.18
2018-07-06T07:54:28.292Z,26.21
2018-07-06T07:56:55.646Z,26.25
2018-07-06T07:59:23.461Z,26.21
2018-07-06T08:01:50.846Z,26.27
2018-07-06T08:04:19.072Z,26.25
2018-07-06T08:06:46.354Z,26.41
2018-07-06T08:09:13.616Z,26.28
2018-07-06T08:11:41.340Z,26.28
2018-07-06T08:14:08.480Z,26.30
2018-07-06T08:16:35.379Z,26.30
2018-07-06T08:19:03.351Z,26.55
2018-07-06T08:21:31.321Z,26.50
2018-07-06T08:23:58.388Z,26.51
2018-07-06T08:26:25.103Z,26.44
2018-07-06T08:28:52.889Z,26.53
2018-07-06T08:31:20.226Z,26.60
2018-07-06T08:33:47.232Z,26.45
2018-07-06T08:36:15.432Z,26.39
2018-07-06T08:38:43.683Z,26.48
2018-07-06T08:41:10.749Z,26.33
2018-07-06T08:43:37.787Z,26.29
2018-07-06T08:46:04.532Z,26.25
2018-07-06T08:48:31.852Z,26.28
2018-07-06T08:51:05.727Z,26.23
2018-07-06T08:53:32.577Z,26.23
2018-07-06T08:56:00.259Z,26.34
2018-07-06T08:58:28.070Z,26.31
2018-07-06T09:11:37.874Z,26.40
2018-07-06T09:14:04.698Z,26.42
2018-07-06T09:16:31.661Z,26.28
2018-07-06T09:18:59.434Z,26.35
2018-07-06T09:21:26.353Z,26.25
2018-07-06T09:23:53.508Z,26.24
2018-07-06T09:26:21.036Z,26.30
2018-07-06T09:28:48.397Z,26.14
2018-07-06T09:31:15.339Z,26.31
2018-07-06T09:33:42.595Z,26.33
2018-07-06T09:36:09.558Z,26.30
2018-07-06T09:38:36.419Z,26.21
2018-07-06T09:41:10.643Z,26.25
2018-07-06T09:43:38.305Z,26.35
2018-07-06T09:46:05.486Z,26.40
2018-07-06T09:56:23.397Z,26.43
2018-07-06T09:58:50.360Z,26.38
2018-07-06T10:01:17.215Z,26.29
2018-07-06T10:03:44.202Z,26.39
2018-07-06T10:06:11.048Z,26.43
2018-07-06T10:08:38.968Z,26.42
2018-07-06T10:11:05.903Z,26.41
2018-07-06T10:13:32.767Z,26.36
2018-07-06T10:15:59.743Z,26.33
2018-07-06T10:18:26.744Z,26.50
2018-07-06T10:20:53.629Z,26.51
2018-07-06T10:23:20.670Z,26.42
2018-07-06T10:25:47.534Z,26.44
2018-07-06T10:28:14.031Z,26.38
2018-07-06T10:30:45.491Z,26.36
2018-07-06T10:33:12.476Z,26.32
2018-07-06T10:35:39.681Z,26.45
2018-07-06T10:38:07.003Z,26.59
2018-07-06T10:40:34.153Z,26.38
2018-07-06T10:43:01.350Z,26.38
2018-07-06T10:45:27.862Z,26.35
2018-07-06T10:47:55.548Z,26.57
2018-07-06T10:58:24.095Z,26.63
2018-07-06T11:11:26.720Z,26.37
2018-07-06T11:13:53.626Z,26.16
2018-07-06T11:16:20.609Z,26.23
2018-07-06T11:18:47.214Z,26.17
2018-07-06T11:21:13.938Z,26.33
2018-07-06T11:23:41.144Z,26.23
2018-07-06T11:26:07.904Z,26.19
2018-07-06T11:28:34.555Z,26.16
2018-07-06T11:31:01.720Z,26.16
2018-07-06T11:33:28.379Z,26.12
2018-07-06T11:35:55.410Z,26.14
2018-07-06T11:38:22.151Z,26.14
2018-07-06T11:40:52.185Z,26.12
2018-07-06T11:43:19.077Z,26.05
2018-07-06T11:45:46.383Z,26.38
2018-07-06T11:48:14.092Z,26.41
2018-07-06T11:50:41.077Z,26.35
2018-07-06T11:53:08.354Z,26.37
2018-07-06T11:55:35.242Z,26.42
2018-07-06T11:58:02.028Z,26.40
2018-07-06T12:37:28.920Z,26.46
2018-07-06T12:39:55.344Z,26.44
2018-07-06T12:42:22.152Z,26.48
2018-07-06T12:44:50.066Z,26.33
2018-07-06T12:47:16.824Z,26.48
2018-07-06T12:52:15.013Z,26.52
2018-07-06T12:54:42.131Z,26.41
2018-07-06T12:57:09.080Z,26.43
2018-07-06T12:59:36.145Z,26.48
2018-07-06T13:02:02.737Z,26.58
2018-07-06T13:04:29.419Z,26.45
2018-07-06T13:06:56.264Z,26.54
2018-07-06T13:12:01.489Z,26.48
2018-07-06T13:14:28.381Z,26.46
2018-07-06T13:16:55.418Z,26.49
2018-07-06T13:24:42.473Z,26.62
2018-07-06T13:27:09.307Z,26.52
2018-07-06T13:29:35.788Z,26.70
2018-07-06T13:32:02.944Z,26.63
2018-07-06T13:34:30.175Z,26.58
2018-07-06T13:36:56.986Z,26.42
2018-07-06T13:39:24.166Z,26.48
2018-07-06T13:41:50.956Z,26.62
2018-07-06T13:44:17.834Z,26.56
2018-07-06T13:46:44.928Z,26.45
2018-07-06T13:49:11.927Z,26.66
2018-07-06T13:51:39.284Z,26.73
2018-07-06T13:54:06.608Z,26.65
2018-07-06T13:56:35.038Z,26.74
2018-07-06T13:59:02.369Z,26.72
2018-07-06T14:01:29.093Z,26.79
2018-07-06T14:03:56.030Z,26.85
2018-07-06T14:06:22.961Z,26.85
2018-07-06T14:08:49.931Z,26.84
2018-07-06T14:11:17.097Z,26.55
2018-07-06T14:13:44.295Z,26.71
2018-07-06T14:16:11.911Z,26.65
2018-07-06T14:18:38.426Z,26.44
2018-07-06T14:21:05.559Z,26.57
2018-07-06T14:23:32.580Z,26.61
2018-07-06T14:25:59.392Z,26.71
2018-07-06T14:28:26.125Z,26.67
2018-07-06T14:30:53.187Z,26.50
2018-07-06T14:33:20.029Z,26.71
2018-07-06T14:35:47.095Z,26.65
2018-07-06T14:38:13.935Z,26.52
2018-07-06T14:40:42.171Z,26.54
2018-07-06T14:43:08.668Z,26.57
2018-07-06T14:45:35.468Z,26.36
2018-07-06T14:48:02.692Z,26.67
2018-07-06T14:50:29.830Z,26.44
2018-07-06T14:52:57.471Z,26.56
2018-07-06T14:55:24.329Z,26.50
2018-07-06T14:57:51.318Z,26.43
2018-07-06T15:00:18.317Z,26.65
2018-07-06T15:02:45.885Z,26.50
2018-07-06T15:05:12.946Z,26.38
2018-07-06T15:07:40.064Z,26.51
2018-07-06T15:10:07.231Z,26.33
2018-07-06T15:12:34.190Z,26.39
2018-07-06T15:15:01.321Z,26.36
2018-07-06T15:17:28.285Z,26.27
2018-07-06T15:19:55.359Z,26.35
2018-07-06T15:22:22.423Z,26.32
2018-07-06T15:24:49.571Z,26.31
2018-07-06T15:27:16.609Z,26.33
2018-07-06T15:29:43.103Z,26.32
2018-07-06T15:32:09.445Z,26.28
2018-07-06T15:34:35.850Z,26.31
2018-07-06T15:37:02.207Z,26.27
2018-07-06T15:39:29.285Z,26.30
2018-07-06T15:41:56.013Z,26.26
2018-07-06T15:44:23.311Z,26.15
2018-07-06T15:46:49.886Z,26.18
2018-07-06T15:49:16.463Z,26.28
2018-07-06T15:51:42.969Z,26.20
2018-07-06T15:54:09.303Z,26.26
2018-07-06T15:56:35.844Z,26.26
2018-07-06T15:59:02.234Z,26.23
2018-07-06T16:01:28.914Z,26.07
2018-07-06T16:03:55.354Z,26.17
2018-07-06T16:06:22.107Z,26.19
2018-07-06T16:08:48.950Z,26.15
2018-07-06T16:11:15.513Z,26.15
2018-07-06T16:13:41.894Z,26.11
2018-07-06T16:16:08.587Z,26.11
2018-07-06T16:18:34.999Z,26.11
2018-07-06T16:21:01.395Z,26.01
2018-07-06T16:23:27.805Z,25.99
2018-07-06T16:25:54.208Z,25.99
2018-07-06T16:28:20.691Z,25.98
2018-07-06T16:30:47.190Z,25.90
2018-07-06T16:33:13.566Z,25.99
2018-07-06T16:35:39.890Z,25.96
2018-07-06T16:38:06.319Z,25.93
2018-07-06T16:40:32.686Z,25.88
2018-07-06T16:42:59.037Z,25.89
2018-07-06T16:45:25.364Z,25.96
2018-07-06T16:47:51.837Z,25.92
2018-07-06T16:50:18.296Z,25.87
2018-07-06T16:52:44.629Z,25.90
2018-07-06T16:55:11.035Z,25.67
2018-07-06T16:57:37.363Z,25.79
2018-07-06T17:00:03.718Z,25.87
2018-07-06T17:02:30.099Z,25.82
2018-07-06T17:04:56.525Z,25.81
2018-07-06T17:07:22.862Z,25.92
2018-07-06T17:09:49.203Z,25.92
2018-07-06T17:12:15.674Z,26.01
2018-07-06T17:14:42.017Z,26.03
2018-07-06T17:17:08.434Z,25.96
2018-07-06T17:19:34.775Z,26.05
2018-07-06T17:22:01.165Z,26.09
2018-07-06T17:24:27.499Z,26.04
2018-07-06T17:26:53.950Z,26.10
2018-07-06T17:29:20.397Z,26.06
2018-07-06T17:31:46.752Z,26.05
2018-07-06T17:34:13.085Z,26.05
2018-07-06T17:36:39.484Z,26.06
2018-07-06T17:39:05.849Z,26.10
2018-07-06T17:41:32.223Z,26.06
2018-07-06T17:43:58.634Z,26.00
2018-07-06T17:46:25.026Z,25.95
2018-07-06T17:48:51.467Z,25.97
2018-07-06T17:51:17.901Z,25.96
2018-07-06T17:53:44.268Z,25.96
2018-07-06T17:56:10.652Z,25.88
2018-07-06T17:58:37.019Z,25.92
2018-07-06T18:01:03.467Z,25.92
2018-07-06T18:03:29.832Z,25.91
2018-07-06T18:05:56.244Z,25.88
2018-07-06T18:08:22.585Z,25.89
2018-07-06T18:10:48.913Z,25.88
2018-07-06T18:13:15.299Z,25.93
2018-07-06T18:15:41.682Z,25.94
2018-07-06T18:18:07.992Z,25.89
2018-07-06T18:20:34.312Z,25.75
2018-07-06T18:23:00.736Z,25.80
2018-07-06T18:25:27.010Z,25.79
2018-07-06T18:27:53.535Z,25.91
2018-07-06T18:30:19.919Z,25.94
2018-07-06T18:32:46.266Z,25.91
2018-07-06T18:35:12.671Z,25.92
2018-07-06T18:37:39.016Z,25.82
2018-07-06T18:40:05.406Z,25.90
2018-07-06T18:42:31.729Z,25.92
2018-07-06T18:44:58.060Z,25.78
2018-07-06T18:47:24.415Z,25.70
2018-07-06T18:49:50.867Z,25.65
2018-07-06T18:52:17.229Z,25.76
2018-07-06T18:54:43.686Z,25.84
2018-07-06T18:57:10.023Z,25.86
2018-07-06T18:59:36.396Z,25.87
2018-07-06T19:02:02.775Z,25.95
2018-07-06T19:04:29.147Z,25.89
2018-07-06T19:06:55.479Z,25.91
2018-07-06T19:09:21.885Z,25.91
2018-07-06T19:11:48.216Z,25.92
2018-07-06T19:14:14.548Z,25.91
2018-07-06T19:16:40.929Z,25.91
2018-07-06T19:19:07.281Z,25.87
2018-07-06T19:21:33.612Z,25.89
2018-07-06T19:23:59.977Z,25.90
2018-07-06T19:26:26.322Z,25.90
2018-07-06T19:28:52.647Z,25.87
2018-07-06T19:31:18.980Z,25.87
2018-07-06T19:33:45.297Z,25.84
2018-07-06T19:36:11.620Z,25.81
2018-07-06T19:38:37.940Z,25.80
2018-07-06T19:41:04.287Z,25.80
2018-07-06T19:43:30.620Z,25.79
2018-07-06T19:45:56.955Z,25.77
2018-07-06T19:48:23.338Z,25.77
2018-07-06T19:50:49.698Z,25.78
2018-07-06T19:53:16.075Z,25.75
2018-07-06T19:55:42.407Z,25.76
2018-07-06T19:58:08.726Z,25.67
2018-07-06T20:00:35.071Z,25.73
2018-07-06T20:03:01.436Z,25.72
2018-07-06T20:05:27.775Z,25.71
2018-07-06T20:07:54.183Z,25.69
2018-07-06T20:10:20.483Z,25.69
2018-07-06T20:12:46.856Z,25.69
2018-07-06T20:15:13.188Z,25.68
2018-07-06T20:17:39.576Z,25.67
2018-07-06T20:20:05.916Z,25.64
2018-07-06T20:22:32.276Z,25.64
2018-07-06T20:24:58.610Z,25.64
2018-07-06T20:27:24.956Z,25.63
2018-07-06T20:29:51.363Z,25.63
2018-07-06T20:32:17.722Z,25.59
2018-07-06T20:34:44.071Z,25.62
2018-07-06T20:37:10.426Z,25.61
2018-07-06T20:39:36.798Z,25.58
2018-07-06T20:42:03.245Z,25.59
2018-07-06T20:44:29.623Z,25.59
2018-07-06T20:46:55.960Z,25.58
2018-07-06T20:49:22.309Z,25.55
2018-07-06T20:51:48.790Z,25.54
2018-07-06T20:54:15.194Z,25.55
2018-07-06T20:56:41.560Z,25.56
2018-07-06T20:59:07.918Z,25.52
2018-07-06T21:01:34.280Z,25.51
2018-07-06T21:04:00.636Z,25.54
2018-07-06T21:06:27.028Z,25.52
2018-07-06T21:08:53.466Z,25.49
2018-07-06T21:11:19.848Z,25.51
2018-07-06T21:13:46.282Z,25.46
2018-07-06T21:16:12.692Z,25.52
2018-07-06T21:18:39.035Z,25.48
2018-07-06T21:21:05.388Z,25.48
2018-07-06T21:23:31.763Z,25.47
2018-07-06T21:25:58.081Z,25.41
2018-07-06T21:28:24.544Z,25.45
2018-07-06T21:30:50.923Z,25.44
2018-07-06T21:33:17.385Z,25.44
2018-07-06T21:35:43.806Z,25.36
2018-07-06T21:38:10.169Z,25.43
2018-07-06T21:40:36.518Z,25.41
2018-07-06T21:43:02.964Z,25.41
2018-07-06T21:45:29.304Z,25.39
2018-07-06T21:47:55.753Z,25.36
2018-07-06T21:50:22.155Z,25.40
2018-07-06T21:52:48.615Z,25.34
2018-07-06T21:55:14.959Z,25.35
2018-07-06T21:57:41.370Z,25.37
2018-07-06T22:00:07.786Z,25.37
2018-07-06T22:02:34.181Z,25.30
2018-07-06T22:05:00.558Z,25.34
2018-07-06T22:07:26.942Z,25.32
2018-07-06T22:09:53.306Z,25.32
2018-07-06T22:12:19.689Z,25.31
2018-07-06T22:14:46.059Z,25.30
2018-07-06T22:17:12.420Z,25.31
2018-07-06T22:19:38.838Z,25.28
2018-07-06T22:22:05.216Z,25.29
2018-07-06T22:24:31.586Z,25.29
2018-07-06T22:26:57.937Z,25.26
2018-07-06T22:29:24.280Z,25.23
2018-07-06T22:31:50.661Z,25.26
2018-07-06T22:34:17.094Z,25.23
2018-07-06T22:36:43.468Z,25.24
2018-07-06T22:39:09.817Z,25.22
2018-07-06T22:41:36.230Z,25.22
2018-07-06T22:44:02.625Z,25.19
2018-07-06T22:46:28.959Z,25.21
2018-07-06T22:48:55.325Z,25.24
2018-07-06T22:51:21.663Z,25.23
2018-07-06T22:53:48.013Z,25.20
2018-07-06T22:56:14.377Z,25.21
2018-07-06T22:58:40.751Z,25.18
2018-07-06T23:01:07.130Z,25.19
2018-07-06T23:03:33.474Z,25.17
2018-07-06T23:05:59.798Z,25.16
2018-07-06T23:08:26.281Z,25.18
2018-07-06T23:10:52.624Z,25.13
2018-07-06T23:13:19.073Z,25.14
2018-07-06T23:15:45.540Z,25.15
2018-07-06T23:18:11.920Z,25.14
2018-07-06T23:20:38.252Z,25.10
2018-07-06T23:23:04.574Z,25.12
2018-07-06T23:25:30.961Z,25.11
2018-07-06T23:27:57.300Z,25.10
2018-07-06T23:30:23.806Z,25.10
2018-07-06T23:32:50.251Z,25.10
2018-07-06T23:35:16.664Z,25.10
2018-07-06T23:37:42.986Z,25.10
2018-07-06T23:40:09.344Z,25.09
2018-07-06T23:42:35.678Z,25.07
2018-07-06T23:45:02.049Z,25.05
2018-07-06T23:47:28.454Z,25.05
2018-07-06T23:49:54.840Z,25.05
2018-07-06T23:52:21.196Z,25.06
2018-07-06T23:54:47.558Z,25.01
2018-07-06T23:57:14.046Z,25.03
2018-07-06T23:59:40.426Z,25.02
